Time;durP1;ratioP1;P1;durP2;ratioP2;P2;SDS_P1;SDS_P2;PMS_P1;PMS_P2;Temp;Humidity;BMP_temperature;BMP_pressure;BME280_temperature;BME280_humidity;BME280_pressure;Samples;Min_cycle;Max_cycle;Signal;HPM_P1;HPM_P2
2022/05/19 00:00:23;;;;;;;18.03;13.90;;;16.70;99.90;;;;;;5092816;28;20036;-72
2022/05/19 00:02:49;;;;;;;16.70;14.13;;;16.70;99.90;;;;;;5093028;28;20044;-72
2022/05/19 00:05:15;;;;;;;18.93;13.47;;;16.70;99.90;;;;;;5091986;28;20087;-72
2022/05/19 00:07:41;;;;;;;18.27;14.07;;;16.70;99.90;;;;;;5092669;28;20044;-71
2022/05/19 00:10:07;;;;;;;19.47;14.30;;;16.70;99.90;;;;;;5075052;28;20056;-72
2022/05/19 00:12:33;;;;;;;19.93;13.47;;;16.60;99.90;;;;;;5092720;28;20407;-73
2022/05/19 00:14:59;;;;;;;22.07;14.23;;;16.60;99.90;;;;;;5093047;28;20501;-73
2022/05/19 00:17:25;;;;;;;18.60;13.60;;;16.60;99.90;;;;;;5091400;28;20133;-73
2022/05/19 00:19:51;;;;;;;21.47;14.90;;;16.60;99.90;;;;;;5092799;28;20044;-72
2022/05/19 00:22:17;;;;;;;18.67;13.10;;;16.50;99.90;;;;;;5091978;28;20052;-72
2022/05/19 00:24:43;;;;;;;18.50;13.77;;;16.50;99.90;;;;;;5092428;28;20040;-73
2022/05/19 00:27:08;;;;;;;17.27;13.53;;;16.50;99.90;;;;;;5092813;28;20050;-72
2022/05/19 00:29:35;;;;;;;20.90;15.07;;;16.50;99.90;;;;;;5091279;28;20097;-73
2022/05/19 00:32:00;;;;;;;21.17;15.50;;;16.50;99.90;;;;;;5091687;28;20381;-73
2022/05/19 00:34:26;;;;;;;20.27;14.13;;;16.50;99.90;;;;;;5091513;28;20135;-73
2022/05/19 00:36:59;;;;;;;18.53;15.40;;;16.50;99.90;;;;;;5091545;28;20044;-73
2022/05/19 00:39:25;;;;;;;17.90;14.47;;;16.60;99.90;;;;;;5091746;28;20056;-73
2022/05/19 00:42:43;;;;;;;18.13;14.80;;;16.60;99.90;;;;;;5096322;28;20120;-73
2022/05/19 00:44:36;;;;;;;20.23;14.67;;;16.50;99.90;;;;;;5096314;28;20408;-73
2022/05/19 00:47:03;;;;;;;21.10;15.33;;;;;;;;;;5096764;28;20047;-72
2022/05/19 00:49:31;;;;;;;18.40;14.83;;;;;;;;;;5078377;28;20475;-73
2022/05/19 00:52:00;;;;;;;21.63;14.83;;;;;;;;;;5096344;28;20151;-73
2022/05/19 00:54:38;;;;;;;18.93;14.20;;;;;;;;;;5096271;28;20052;-73
2022/05/19 00:57:04;;;;;;;18.83;15.93;;;;;;;;;;5095621;28;20142;-72
2022/05/19 00:59:32;;;;;;;23.17;15.43;;;;;;;;;;5095988;28;20462;-73
2022/05/19 01:01:58;;;;;;;22.40;15.83;;;;;;;;;;5096341;28;20359;-73
2022/05/19 01:04:51;;;;;;;20.20;16.10;;;;;;;;;;5095817;28;20044;-73
2022/05/19 01:07:20;;;;;;;20.57;16.40;;;;;;;;;;5095102;28;20514;-72
2022/05/19 01:09:47;;;;;;;24.10;17.70;;;;;;;;;;5095868;28;20090;-73
2022/05/19 01:12:13;;;;;;;23.60;17.67;;;;;;;;;;5078121;28;20043;-72
2022/05/19 01:14:39;;;;;;;22.37;17.17;;;16.30;99.90;;;;;;5095512;28;20051;-73
2022/05/19 01:17:06;;;;;;;21.83;17.47;;;16.30;99.90;;;;;;5096029;28;20048;-74
2022/05/19 01:19:38;;;;;;;22.73;17.27;;;16.20;99.90;;;;;;5094454;28;20043;-75
2022/05/19 01:22:15;;;;;;;20.43;17.17;;;16.20;99.90;;;;;;5095959;28;20090;-72
2022/05/19 01:25:00;;;;;;;19.97;16.43;;;16.20;99.90;;;;;;5095710;28;20079;-75
2022/05/19 01:27:26;;;;;;;22.05;16.38;;;16.20;99.90;;;;;;5095487;28;20652;-78
2022/05/19 01:29:54;;;;;;;21.60;16.27;;;16.30;99.90;;;;;;5094634;28;20047;-74
2022/05/19 01:32:28;;;;;;;21.53;17.30;;;16.30;99.90;;;;;;5095759;28;20059;-74
2022/05/19 01:34:55;;;;;;;20.77;16.13;;;16.30;99.90;;;;;;5095744;28;20530;-72
2022/05/19 01:37:21;;;;;;;21.90;17.40;;;16.30;99.90;;;;;;5095658;28;20048;-72
2022/05/19 01:39:56;;;;;;;20.23;18.00;;;16.30;99.90;;;;;;5060371;28;20640;-72
2022/05/19 01:42:49;;;;;;;22.40;17.70;;;16.30;99.90;;;;;;5095552;28;20056;-72
2022/05/19 01:45:36;;;;;;;21.53;17.70;;;16.30;99.90;;;;;;5094391;28;20130;-72
2022/05/19 01:48:21;;;;;;;20.93;16.67;;;16.30;99.90;;;;;;5095369;28;20048;-72
2022/05/19 01:50:53;;;;;;;23.55;19.15;;;16.30;99.90;;;;;;5094126;28;20048;-72
2022/05/19 01:53:28;;;;;;;22.97;18.87;;;16.30;99.90;;;;;;5094518;28;20395;-73
2022/05/19 01:56:19;;;;;;;27.87;19.67;;;16.30;99.90;;;;;;5095275;28;20040;-72
2022/05/19 01:58:51;;;;;;;22.60;17.50;;;16.30;99.90;;;;;;5094808;28;20350;-72
2022/05/19 02:01:22;;;;;;;25.77;19.27;;;16.30;99.90;;;;;;5095123;28;20302;-72
2022/05/19 02:03:57;;;;;;;26.50;20.43;;;16.30;99.90;;;;;;5094964;28;20281;-72
2022/05/19 02:06:39;;;;;;;24.47;19.80;;;16.30;99.90;;;;;;5095265;28;20427;-72
2022/05/19 02:09:18;;;;;;;23.97;19.20;;;16.40;99.90;;;;;;5093982;28;20044;-72
2022/05/19 02:11:54;;;;;;;26.37;21.53;;;16.30;99.90;;;;;;5094771;28;20290;-72
2022/05/19 02:14:24;;;;;;;26.63;19.90;;;16.40;99.90;;;;;;5095034;28;20048;-72
2022/05/19 02:16:50;;;;;;;23.57;18.70;;;16.40;99.90;;;;;;5094599;28;20365;-72
2022/05/19 02:19:22;;;;;;;23.43;20.93;;;16.40;99.90;;;;;;5094709;28;20036;-73
2022/05/19 02:21:48;;;;;;;26.33;21.93;;;16.40;99.90;;;;;;5076831;28;20040;-72
2022/05/19 02:24:19;;;;;;;25.90;21.33;;;16.30;99.90;;;;;;5093601;28;20048;-72
2022/05/19 02:26:45;;;;;;;29.50;23.80;;;16.30;99.90;;;;;;5094521;28;20097;-72
2022/05/19 02:29:17;;;;;;;25.20;21.77;;;16.30;99.90;;;;;;5094755;28;20761;-72
2022/05/19 02:31:44;;;;;;;29.17;23.27;;;16.20;99.90;;;;;;5076475;28;20071;-72
2022/05/19 02:34:10;;;;;;;34.63;24.10;;;16.10;99.90;;;;;;5094450;28;20270;-73
2022/05/19 02:36:36;;;;;;;27.27;23.60;;;16.10;99.90;;;;;;5094335;28;20285;-73
2022/05/19 02:39:02;;;;;;;29.43;23.63;;;16.00;99.90;;;;;;5094602;28;20279;-73
2022/05/19 02:41:28;;;;;;;25.30;22.37;;;16.10;99.90;;;;;;5094214;28;20830;-72
2022/05/19 02:43:54;;;;;;;28.20;22.33;;;16.10;99.90;;;;;;5094052;28;20055;-72
2022/05/19 02:46:19;;;;;;;27.43;24.40;;;16.10;99.90;;;;;;5093094;28;20525;-72
2022/05/19 02:48:45;;;;;;;29.93;23.07;;;16.10;99.90;;;;;;5093758;28;20055;-73
2022/05/19 02:51:11;;;;;;;28.13;23.97;;;16.10;99.90;;;;;;5094310;28;20040;-72
2022/05/19 02:53:37;;;;;;;28.80;24.77;;;16.10;99.90;;;;;;5093957;28;20381;-73
2022/05/19 02:56:03;;;;;;;28.23;24.93;;;16.10;99.90;;;;;;5094206;28;20126;-74
2022/05/19 02:58:28;;;;;;;30.17;24.63;;;16.10;99.90;;;;;;5093952;28;20044;-74
2022/05/19 03:00:55;;;;;;;30.57;25.10;;;16.10;99.90;;;;;;5092259;28;20301;-74
2022/05/19 03:03:21;;;;;;;28.70;24.70;;;16.10;99.90;;;;;;5093274;28;20094;-74
2022/05/19 03:05:46;;;;;;;28.37;25.17;;;16.10;99.90;;;;;;5093626;28;20850;-74
2022/05/19 03:08:12;;;;;;;34.77;25.97;;;16.10;99.90;;;;;;5093710;28;20059;-74
2022/05/19 03:10:40;;;;;;;32.53;28.27;;;16.20;99.90;;;;;;5075688;28;20070;-74
2022/05/19 03:13:07;;;;;;;33.63;25.87;;;16.20;99.90;;;;;;5092581;28;20326;-74
2022/05/19 03:15:34;;;;;;;35.33;29.17;;;16.20;99.90;;;;;;5093456;28;20294;-74
2022/05/19 03:18:00;;;;;;;32.40;26.03;;;16.20;99.90;;;;;;5093131;28;20051;-72
2022/05/19 03:20:26;;;;;;;31.90;26.23;;;16.20;99.90;;;;;;5093596;28;20293;-72
2022/05/19 03:22:51;;;;;;;30.67;27.03;;;16.30;99.90;;;;;;5092196;28;20047;-72
2022/05/19 03:25:17;;;;;;;32.27;27.93;;;16.30;99.90;;;;;;5092639;28;20051;-72
2022/05/19 03:27:43;;;;;;;34.07;26.27;;;16.30;99.90;;;;;;5093254;28;20570;-72
2022/05/19 03:30:13;;;;;;;32.40;28.40;;;16.30;99.90;;;;;;5075561;28;20502;-73
2022/05/19 03:32:39;;;;;;;32.13;26.50;;;16.40;99.90;;;;;;5093023;28;20112;-75
2022/05/19 03:35:05;;;;;;;31.33;27.97;;;16.40;99.90;;;;;;5093652;28;20282;-72
2022/05/19 03:37:31;;;;;;;32.50;27.00;;;16.30;99.90;;;;;;5092095;28;20294;-72
2022/05/19 03:39:57;;;;;;;31.40;27.23;;;16.30;99.90;;;;;;5092909;28;20464;-72
2022/05/19 03:42:23;;;;;;;33.47;26.93;;;16.30;99.90;;;;;;5075415;28;20491;-72
2022/05/19 03:44:49;;;;;;;33.83;28.33;;;16.40;99.90;;;;;;5092896;28;20331;-74
2022/05/19 03:47:15;;;;;;;32.43;28.93;;;16.30;99.90;;;;;;5093291;28;20062;-72
2022/05/19 03:49:41;;;;;;;33.07;29.50;;;16.30;99.90;;;;;;5091856;28;20531;-76
2022/05/19 03:52:07;;;;;;;34.10;28.73;;;16.40;99.90;;;;;;5092043;28;20384;-72
2022/05/19 03:54:32;;;;;;;34.27;27.30;;;16.40;99.90;;;;;;5092896;28;20565;-72
2022/05/19 03:56:58;;;;;;;34.70;27.90;;;16.40;99.90;;;;;;5092686;28;20044;-72
2022/05/19 03:59:24;;;;;;;34.47;26.97;;;16.40;99.90;;;;;;5093005;28;20138;-72
2022/05/19 04:01:49;;;;;;;31.50;26.60;;;16.40;99.90;;;;;;5092532;28;20056;-72
2022/05/19 04:04:15;;;;;;;36.03;28.43;;;16.40;99.90;;;;;;5093347;28;20044;-72
2022/05/19 04:06:41;;;;;;;36.10;28.30;;;16.40;99.90;;;;;;5092931;28;20495;-72
2022/05/19 04:09:06;;;;;;;34.10;28.33;;;16.40;99.90;;;;;;5091576;28;20047;-72
2022/05/19 04:11:32;;;;;;;31.70;26.43;;;16.40;99.90;;;;;;5092839;28;20043;-72
2022/05/19 04:13:59;;;;;;;35.73;28.93;;;16.40;99.90;;;;;;5092302;28;20104;-72
2022/05/19 04:16:25;;;;;;;33.87;28.30;;;16.40;99.90;;;;;;5091996;28;20052;-72
2022/05/19 04:18:51;;;;;;;35.83;28.80;;;16.40;99.90;;;;;;5092605;28;20054;-73
2022/05/19 04:21:17;;;;;;;33.77;28.97;;;16.40;99.90;;;;;;5091573;28;20298;-73
2022/05/19 04:23:43;;;;;;;32.90;27.50;;;16.50;99.90;;;;;;5092740;28;20040;-73
2022/05/19 04:26:08;;;;;;;37.50;29.47;;;16.50;99.90;;;;;;5092428;28;20044;-73
2022/05/19 04:28:34;;;;;;;32.97;29.13;;;16.60;99.90;;;;;;5092635;28;20102;-73
2022/05/19 04:31:00;;;;;;;34.20;29.07;;;16.60;99.90;;;;;;5092555;28;20075;-73
2022/05/19 04:33:27;;;;;;;32.17;28.67;;;16.60;99.90;;;;;;5074925;28;20396;-72
2022/05/19 04:35:53;;;;;;;31.40;26.90;;;16.70;99.90;;;;;;5092478;28;20048;-73
2022/05/19 04:38:19;;;;;;;34.37;30.57;;;16.70;99.90;;;;;;5092478;28;20121;-72
2022/05/19 04:40:47;;;;;;;31.70;28.30;;;16.70;99.90;;;;;;5092170;28;20102;-73
2022/05/19 04:43:19;;;;;;;37.33;32.20;;;16.80;99.90;;;;;;5092519;28;20285;-72
2022/05/19 04:45:47;;;;;;;35.87;31.97;;;16.90;99.90;;;;;;5091494;28;20492;-72
2022/05/19 04:48:12;;;;;;;35.27;31.53;;;16.90;99.90;;;;;;5091566;28;20052;-73
2022/05/19 04:50:38;;;;;;;37.37;33.07;;;17.00;99.90;;;;;;5092495;28;20290;-72
2022/05/19 04:53:04;;;;;;;37.03;32.90;;;17.00;99.90;;;;;;5092152;28;20047;-72
2022/05/19 04:55:30;;;;;;;36.97;31.47;;;17.10;99.90;;;;;;5092320;28;20126;-72
2022/05/19 04:57:55;;;;;;;36.20;32.20;;;17.20;99.90;;;;;;5057487;28;20055;-72
2022/05/19 05:00:21;;;;;;;36.13;32.03;;;17.20;99.90;;;;;;5091142;28;20047;-72
2022/05/19 05:02:47;;;;;;;35.23;31.03;;;17.30;99.90;;;;;;5092443;28;20506;-72
2022/05/19 05:05:13;;;;;;;35.87;30.57;;;17.30;99.90;;;;;;5074202;28;20087;-74
2022/05/19 05:07:39;;;;;;;34.20;30.30;;;17.40;99.90;;;;;;5091452;28;20109;-74
2022/05/19 05:10:05;;;;;;;33.40;29.97;;;17.40;99.90;;;;;;5092014;28;20047;-74
2022/05/19 05:12:31;;;;;;;33.03;29.07;;;17.50;99.90;;;;;;5090993;28;20055;-75
2022/05/19 05:14:57;;;;;;;37.70;31.90;;;17.50;99.90;;;;;;5091847;28;20064;-74
2022/05/19 05:17:23;;;;;;;37.30;32.43;;;17.50;99.90;;;;;;5092353;28;20040;-74
2022/05/19 05:19:49;;;;;;;38.67;34.47;;;17.50;99.90;;;;;;5091256;28;20059;-74
2022/05/19 05:22:15;;;;;;;37.23;33.33;;;17.60;99.90;;;;;;5092061;28;20134;-74
2022/05/19 05:24:41;;;;;;;36.83;31.93;;;17.60;99.90;;;;;;5092323;28;20135;-74
2022/05/19 05:27:07;;;;;;;41.37;35.33;;;17.60;99.90;;;;;;5092860;28;20044;-74
2022/05/19 05:29:34;;;;;;;41.20;33.03;;;17.50;99.90;;;;;;5095129;28;20388;-74
2022/05/19 05:32:00;;;;;;;40.97;35.53;;;17.50;99.90;;;;;;5095589;28;20086;-74
2022/05/19 05:34:26;;;;;;;42.13;35.70;;;17.50;99.90;;;;;;5095790;28;20075;-74
2022/05/19 05:36:52;;;;;;;45.43;37.37;;;17.50;99.90;;;;;;5095464;28;20044;-79
2022/05/19 05:39:18;;;;;;;41.70;35.43;;;17.50;99.90;;;;;;5095375;28;20553;-74
2022/05/19 05:41:45;;;;;;;39.80;34.43;;;17.50;99.90;;;;;;5095429;28;20036;-72
2022/05/19 05:44:11;;;;;;;38.83;34.00;;;17.50;99.90;;;;;;5095386;28;20090;-72
2022/05/19 05:46:37;;;;;;;38.33;34.30;;;17.60;99.90;;;;;;5077508;28;20075;-73
2022/05/19 05:49:05;;;;;;;37.57;33.50;;;17.50;99.90;;;;;;5095227;28;20055;-73
2022/05/19 05:51:30;;;;;;;38.70;31.97;;;17.60;99.90;;;;;;5094220;28;20094;-72
2022/05/19 05:53:56;;;;;;;38.00;33.17;;;17.60;99.90;;;;;;5093862;28;20091;-72
2022/05/19 05:56:22;;;;;;;32.00;28.10;;;17.60;99.90;;;;;;5095311;28;20048;-72
2022/05/19 05:58:48;;;;;;;34.53;28.33;;;17.60;99.90;;;;;;5095398;28;20463;-72
2022/05/19 06:01:16;;;;;;;29.70;26.23;;;17.60;99.90;;;;;;5094997;28;20154;-72
2022/05/19 06:03:43;;;;;;;30.20;26.93;;;17.60;99.90;;;;;;5095270;28;20082;-72
2022/05/19 06:06:09;;;;;;;30.43;27.27;;;17.60;99.90;;;;;;5093932;28;20127;-72
2022/05/19 06:08:34;;;;;;;32.70;29.20;;;17.70;99.90;;;;;;5095033;28;20122;-72
2022/05/19 06:11:01;;;;;;;30.60;27.33;;;17.70;99.90;;;;;;5094631;28;20119;-72
2022/05/19 06:13:28;;;;;;;29.90;24.50;;;17.70;99.90;;;;;;5094008;28;20104;-72
2022/05/19 06:15:54;;;;;;;30.50;24.70;;;17.70;99.90;;;;;;5095199;28;20055;-73
2022/05/19 06:18:20;;;;;;;29.87;23.70;;;17.70;99.90;;;;;;5094662;28;20043;-73
2022/05/19 06:20:46;;;;;;;28.67;25.60;;;17.70;99.90;;;;;;5094880;28;20069;-73
2022/05/19 06:23:16;;;;;;;27.67;24.73;;;17.70;99.90;;;;;;5094498;28;20123;-74
2022/05/19 06:25:42;;;;;;;32.40;25.17;;;17.60;99.90;;;;;;5094850;28;20056;-73
2022/05/19 06:28:07;;;;;;;37.87;31.40;;;17.60;99.90;;;;;;5094573;28;20051;-73
2022/05/19 06:30:33;;;;;;;33.90;28.60;;;17.60;99.90;;;;;;5094900;28;20044;-72
2022/05/19 06:32:59;;;;;;;32.60;28.27;;;17.60;99.90;;;;;;5094391;28;20048;-73
2022/05/19 06:35:29;;;;;;;46.10;38.90;;;17.50;99.90;;;;;;5094674;28;20142;-72
2022/05/19 06:37:55;;;;;;;44.80;35.57;;;17.60;99.90;;;;;;5093654;28;20127;-71
2022/05/19 06:40:24;;;;;;;48.67;37.87;;;17.60;99.90;;;;;;5094000;28;20131;-72
2022/05/19 06:42:50;;;;;;;52.93;40.83;;;17.60;99.90;;;;;;5094586;28;20044;-72
2022/05/19 06:45:20;;;;;;;44.70;38.87;;;17.60;99.90;;;;;;5094156;28;20101;-72
2022/05/19 06:47:46;;;;;;;38.73;33.03;;;17.70;99.90;;;;;;5093155;28;20052;-72
2022/05/19 06:50:13;;;;;;;36.03;30.50;;;17.70;99.90;;;;;;5093929;28;20044;-72
2022/05/19 06:52:47;;;;;;;39.77;33.00;;;17.80;99.90;;;;;;5094090;28;20059;-72
2022/05/19 06:55:14;;;;;;;33.88;30.13;;;17.80;99.90;;;;;;5076355;28;20051;-72
2022/05/19 06:57:41;;;;;;;34.53;30.80;;;17.80;99.90;;;;;;5094341;28;20135;-72
2022/05/19 07:00:09;;;;;;;38.90;34.73;;;17.90;99.90;;;;;;5075882;28;20048;-72
2022/05/19 07:02:35;;;;;;;34.27;30.73;;;17.90;99.90;;;;;;5094163;28;20128;-72
2022/05/19 07:05:01;;;;;;;38.00;31.93;;;18.00;99.90;;;;;;5093861;28;20119;-74
2022/05/19 07:07:27;;;;;;;35.67;31.87;;;18.10;99.90;;;;;;5094094;28;20040;-72
2022/05/19 07:09:52;;;;;;;34.97;30.73;;;18.10;99.90;;;;;;5094014;28;20504;-72
2022/05/19 07:12:23;;;;;;;37.67;30.03;;;18.10;99.90;;;;;;5092535;28;20119;-72
2022/05/19 07:14:50;;;;;;;40.90;36.50;;;18.10;99.90;;;;;;5093925;28;20453;-72
2022/05/19 07:17:15;;;;;;;36.10;31.37;;;18.20;99.90;;;;;;5093402;28;20055;-72
2022/05/19 07:22:25;;;;;;;33.63;30.30;;;18.30;99.90;;;;;;5093536;28;20450;-71
2022/05/19 07:24:51;;;;;;;34.90;30.47;;;18.30;99.90;;;;;;5075730;28;20101;-73
2022/05/19 07:27:17;;;;;;;35.73;31.77;;;18.40;99.90;;;;;;5075156;28;20040;-73
2022/05/19 07:29:43;;;;;;;33.37;29.80;;;18.40;99.90;;;;;;5092287;28;20055;-73
2022/05/19 07:32:09;;;;;;;30.97;27.87;;;18.40;99.90;;;;;;5093032;28;20044;-76
2022/05/19 07:34:37;;;;;;;33.47;28.23;;;18.50;99.90;;;;;;5092441;28;20376;-77
2022/05/19 07:37:04;;;;;;;32.60;29.13;;;18.60;99.90;;;;;;5093356;28;20484;-75
2022/05/19 07:39:29;;;;;;;33.33;29.97;;;18.60;99.90;;;;;;5092848;28;20484;-75
2022/05/19 07:41:56;;;;;;;39.67;28.37;;;18.70;99.90;;;;;;5093326;28;20055;-75
2022/05/19 07:44:24;;;;;;;29.97;26.60;;;18.80;99.90;;;;;;5093021;28;20101;-75
2022/05/19 07:46:50;;;;;;;31.33;27.60;;;18.90;99.90;;;;;;5093089;28;20043;-75
2022/05/19 07:49:17;;;;;;;31.10;27.77;;;18.90;99.90;;;;;;5075116;28;20117;-76
2022/05/19 07:51:44;;;;;;;34.90;24.93;;;18.90;99.90;;;;;;5092109;28;20456;-75
2022/05/19 07:54:22;;;;;;;30.63;24.67;;;18.90;99.90;;;;;;5092870;28;20048;-76
2022/05/19 07:56:48;;;;;;;31.97;25.50;;;18.90;99.90;;;;;;5093243;28;20108;-76
2022/05/19 07:59:15;;;;;;;37.50;26.90;;;18.90;99.90;;;;;;5092696;28;20046;-76
2022/05/19 08:01:43;;;;;;;27.53;24.07;;;18.90;99.90;;;;;;5092890;28;20514;-75
2022/05/19 08:04:10;;;;;;;31.37;25.47;;;18.80;99.90;;;;;;5091777;28;20429;-76
2022/05/19 08:06:37;;;;;;;29.77;23.77;;;18.90;99.90;;;;;;5092121;28;20044;-73
2022/05/19 08:10:20;;;;;;;31.13;24.30;;;18.80;99.90;;;;;;5093091;28;20122;-75
2022/05/19 08:11:51;;;;;;;29.27;23.87;;;18.80;99.90;;;;;;5092793;28;20044;-75
2022/05/19 08:17:03;;;;;;;;;;;18.90;99.90;;;;;;5093348;28;20077;-75
2022/05/19 08:19:29;;;;;;;31.17;24.47;;;;;;;;;;5091315;28;20744;-74
2022/05/19 08:21:56;;;;;;;30.10;23.23;;;;;;;;;;5091421;28;20043;-75
2022/05/19 08:24:24;;;;;;;32.33;25.37;;;;;;;;;;5092401;28;20399;-72
2022/05/19 08:26:53;;;;;;;27.60;24.13;;;;;;;;;;5092916;28;20050;-72
2022/05/19 08:29:19;;;;;;;25.80;22.80;;;19.50;99.90;;;;;;5092713;28;20052;-73
2022/05/19 08:31:48;;;;;;;25.23;22.30;;;;;;;;;;5092879;28;20055;-72
2022/05/19 08:34:14;;;;;;;24.13;21.47;;;19.40;99.90;;;;;;5092622;28;20189;-73
2022/05/19 08:36:46;;;;;;;28.40;22.97;;;19.70;99.90;;;;;;5092641;28;20086;-72
2022/05/19 08:39:13;;;;;;;27.37;21.30;;;19.70;99.90;;;;;;5092848;28;20067;-73
2022/05/19 08:42:01;;;;;;;24.50;21.33;;;19.80;99.90;;;;;;5093058;28;20055;-72
2022/05/19 08:44:35;;;;;;;22.27;19.77;;;19.90;99.90;;;;;;5092248;28;20491;-72
2022/05/19 08:47:03;;;;;;;22.70;20.27;;;20.00;99.90;;;;;;5092940;28;20052;-73
2022/05/19 08:49:36;;;;;;;23.47;20.97;;;20.10;99.90;;;;;;5092363;28;20429;-72
2022/05/19 08:52:04;;;;;;;25.60;20.77;;;20.10;99.90;;;;;;5093040;28;20044;-72
2022/05/19 08:54:33;;;;;;;24.37;21.77;;;20.20;99.90;;;;;;5092615;28;20467;-72
2022/05/19 08:57:16;;;;;;;23.50;19.83;;;20.30;99.90;;;;;;5091686;28;20123;-72
2022/05/19 09:00:06;;;;;;;24.47;21.23;;;20.40;99.90;;;;;;5092340;28;20051;-71
2022/05/19 09:02:38;;;;;;;25.57;22.97;;;20.60;99.90;;;;;;5095441;28;20130;-72
2022/05/19 09:05:47;;;;;;;24.63;21.90;;;20.70;99.90;;;;;;5096528;28;20044;-72
2022/05/19 09:08:13;;;;;;;23.90;19.53;;;;;;;;;;5095210;28;20373;-73
2022/05/19 09:11:12;;;;;;;25.53;19.63;;;20.80;99.90;;;;;;5096060;28;20052;-72
2022/05/19 09:13:57;;;;;;;22.77;20.43;;;;;;;;;;5095817;28;20048;-73
2022/05/19 09:16:26;;;;;;;22.57;19.57;;;21.20;99.90;;;;;;5095709;28;20399;-74
2022/05/19 09:19:08;;;;;;;23.90;21.17;;;21.30;99.90;;;;;;5096182;28;20102;-73
2022/05/19 09:21:35;;;;;;;23.07;20.10;;;;;;;;;;5095824;28;20048;-72
2022/05/19 09:24:01;;;;;;;22.53;20.23;;;;;;;;;;5094790;28;20040;-72
2022/05/19 09:26:46;;;;;;;21.60;19.30;;;;;;;;;;5095584;28;20502;-72
2022/05/19 09:29:15;;;;;;;21.95;18.90;;;21.50;99.90;;;;;;5095977;28;20040;-72
2022/05/19 09:31:47;;;;;;;21.87;19.57;;;21.40;99.90;;;;;;5095704;28;20040;-72
2022/05/19 09:34:13;;;;;;;22.43;20.07;;;21.30;99.90;;;;;;5094835;28;20044;-73
2022/05/19 09:36:53;;;;;;;22.40;19.97;;;21.20;99.90;;;;;;5095433;28;20131;-74
2022/05/19 09:39:19;;;;;;;25.53;20.17;;;21.10;99.90;;;;;;5095370;28;20048;-76
2022/05/19 09:41:51;;;;;;;22.03;19.37;;;21.00;99.90;;;;;;5095236;28;20052;-73
2022/05/19 09:44:25;;;;;;;22.73;20.33;;;20.90;99.90;;;;;;5095800;28;20048;-74
2022/05/19 09:46:51;;;;;;;;;;;20.80;99.90;;;;;;5096068;28;20074;-74
2022/05/19 09:49:31;;;;;;;20.50;18.40;;;20.80;99.90;;;;;;5077672;28;19920;-74
2022/05/19 09:52:05;;;;;;;22.03;19.60;;;20.80;99.90;;;;;;5094084;28;20407;-75
2022/05/19 09:54:34;;;;;;;19.75;17.05;;;20.90;99.90;;;;;;5095364;28;20123;-74
2022/05/19 09:57:09;;;;;;;20.50;18.33;;;21.00;99.90;;;;;;5094117;28;20426;-74
2022/05/19 09:59:40;;;;;;;20.08;18.00;;;21.30;99.90;;;;;;5093972;28;20056;-73
2022/05/19 10:02:31;;;;;;;22.13;17.67;;;21.50;99.90;;;;;;5094213;28;20126;-74
2022/05/19 10:04:59;;;;;;;20.43;17.83;;;21.80;99.90;;;;;;5095212;28;20048;-75
2022/05/19 10:07:36;;;;;;;20.37;17.87;;;21.90;99.90;;;;;;5094925;28;20052;-74
2022/05/19 10:10:03;;;;;;;20.77;18.50;;;22.10;99.90;;;;;;5095295;28;20040;-75
2022/05/19 10:12:31;;;;;;;19.43;17.23;;;22.20;99.90;;;;;;5093722;28;20126;-75
2022/05/19 10:15:11;;;;;;;19.57;17.23;;;22.20;99.90;;;;;;5094783;28;20127;-75
2022/05/19 10:18:15;;;;;;;17.10;15.30;;;22.20;99.90;;;;;;5094795;28;20055;-75
2022/05/19 10:20:50;;;;;;;16.87;15.07;;;22.20;99.90;;;;;;5093377;28;20051;-75
2022/05/19 10:23:30;;;;;;;17.70;15.77;;;22.20;99.90;;;;;;5093664;28;20127;-80
2022/05/19 10:26:01;;;;;;;18.20;16.23;;;22.10;99.90;;;;;;5094663;28;20499;-75
2022/05/19 10:31:48;;;;;;;14.80;13.13;;;22.00;99.90;;;;;;5094266;28;20142;-79
2022/05/19 10:34:41;;;;;;;14.77;12.90;;;22.00;99.90;;;;;;5094941;28;20055;-76
2022/05/19 10:37:15;;;;;;;16.27;13.93;;;22.00;99.90;;;;;;5094616;28;20077;-74
2022/05/19 10:40:28;;;;;;;14.80;12.93;;;22.10;99.90;;;;;;5093982;28;20484;-76
2022/05/19 10:42:59;;;;;;;14.07;11.90;;;22.30;99.90;;;;;;5094525;28;20047;-76
2022/05/19 10:45:39;;;;;;;17.20;12.23;;;22.40;99.90;;;;;;5093464;28;20048;-74
2022/05/19 10:48:24;;;;;;;14.40;12.77;;;22.60;99.90;;;;;;5094281;28;20048;-74
2022/05/19 10:50:55;;;;;;;;;;;22.60;99.90;;;;;;5094586;28;20476;-74
2022/05/19 10:53:39;;;;;;;11.43;10.17;;;22.70;99.90;;;;;;5093278;28;20364;-73
2022/05/19 10:56:18;;;;;;;12.52;9.80;;;22.70;99.90;;;;;;5093159;28;20044;-73
2022/05/19 10:59:11;;;;;;;13.73;9.30;;;22.80;99.90;;;;;;5093798;28;20105;-73
2022/05/19 11:01:48;;;;;;;10.13;7.90;;;22.80;99.90;;;;;;5093770;28;20118;-74
2022/05/19 11:04:41;;;;;;;11.17;8.67;;;22.80;99.90;;;;;;5094281;28;20055;-73
2022/05/19 11:07:35;;;;;;;10.23;7.47;;;22.80;99.90;;;;;;5093890;28;20476;-74
2022/05/19 11:10:38;;;;;;;10.97;6.87;;;22.90;99.90;;;;;;5094071;28;20492;-73
2022/05/19 11:13:27;;;;;;;9.57;7.77;;;23.00;99.90;;;;;;5093821;28;20047;-73
2022/05/19 11:16:17;;;;;;;9.63;7.77;;;23.00;99.90;;;;;;5092804;28;20047;-72
2022/05/19 11:18:42;;;;;;;10.03;7.30;;;23.10;99.90;;;;;;5093559;28;20059;-72
2022/05/19 11:21:22;;;;;;;12.40;8.37;;;23.30;99.90;;;;;;5093570;28;20047;-73
2022/05/19 11:23:56;;;;;;;13.73;9.17;;;23.40;99.90;;;;;;5059289;28;20052;-72
2022/05/19 11:26:25;;;;;;;9.18;7.65;;;23.50;99.90;;;;;;5092892;28;20040;-74
2022/05/19 11:29:02;;;;;;;8.30;6.33;;;23.60;99.90;;;;;;5093241;28;20065;-72
2022/05/19 11:31:56;;;;;;;8.17;5.30;;;23.70;99.90;;;;;;5092750;28;20056;-74
2022/05/19 11:34:35;;;;;;;6.27;4.77;;;23.70;99.90;;;;;;5092712;28;20040;-74
2022/05/19 11:37:20;;;;;;;7.63;4.53;;;23.70;99.90;;;;;;5093377;28;20506;-75
2022/05/19 11:40:13;;;;;;;6.63;5.00;;;23.70;99.90;;;;;;5092783;28;20131;-74
2022/05/19 11:43:01;;;;;;;8.83;5.80;;;23.60;99.90;;;;;;5092135;28;20058;-74
2022/05/19 11:45:30;;;;;;;7.07;5.23;;;23.50;99.90;;;;;;5092306;28;20052;-73
2022/05/19 11:57:21;;;;;;;7.93;4.30;;;23.20;99.90;;;;;;5093501;28;20117;-75
2022/05/19 11:59:50;;;;;;;6.53;4.60;;;23.10;99.90;;;;;;5092782;28;20139;-72
2022/05/19 12:02:22;;;;;;;9.20;4.40;;;23.10;99.90;;;;;;5091917;28;20137;-75
2022/05/19 12:04:52;;;;;;;7.23;4.50;;;23.00;99.90;;;;;;5092797;28;20446;-77
2022/05/19 12:07:36;;;;;;;7.83;4.77;;;23.00;99.90;;;;;;5091557;28;20052;-74
2022/05/19 12:10:02;;;;;;;8.50;4.80;;;22.90;99.90;;;;;;5092869;28;20494;-76
2022/05/19 12:12:36;;;;;;;6.97;5.07;;;22.80;99.90;;;;;;5091327;28;20039;-82
2022/05/19 12:15:21;;;;;;;9.98;4.70;;;22.70;99.90;;;;;;5092937;28;20127;-73
2022/05/19 12:18:09;;;;;;;8.03;5.30;;;22.60;99.90;;;;;;5092426;28;20451;-74
2022/05/19 12:20:53;;;;;;;8.13;5.20;;;22.50;99.90;;;;;;5092950;28;20044;-73
2022/05/19 12:23:38;;;;;;;33.63;13.23;;;22.40;99.90;;;;;;5092931;28;20100;-70
2022/05/19 12:26:12;;;;;;;14.73;9.13;;;22.20;99.90;;;;;;5092860;28;20044;-71
2022/05/19 12:29:22;;;;;;;13.90;5.40;;;21.80;99.90;;;;;;5091749;28;20092;-75
2022/05/19 12:31:59;;;;;;;11.63;4.83;;;21.20;99.90;;;;;;5092594;28;20044;-73
2022/05/19 12:34:31;;;;;;;7.23;3.60;;;20.80;99.90;;;;;;5092125;28;20047;-73
2022/05/19 12:37:15;;;;;;;8.90;3.37;;;20.60;99.90;;;;;;5094482;28;20048;-76
2022/05/19 12:39:51;;;;;;;6.60;2.60;;;20.30;99.90;;;;;;5093456;28;20036;-74
2022/05/19 12:42:32;;;;;;;8.23;3.00;;;20.00;99.90;;;;;;5095363;28;20443;-73
2022/05/19 12:44:59;;;;;;;8.40;3.70;;;19.90;99.90;;;;;;5095833;28;20074;-74
2022/05/19 12:47:31;;;;;;;9.03;4.60;;;19.80;99.90;;;;;;5095412;28;20502;-73
2022/05/19 12:50:07;;;;;;;8.13;5.00;;;19.80;99.90;;;;;;5096062;28;20126;-74
2022/05/19 12:53:09;;;;;;;10.87;5.40;;;19.80;99.90;;;;;;5096313;28;20075;-73
2022/05/19 12:55:42;;;;;;;9.80;5.73;;;19.70;99.90;;;;;;5062880;28;20052;-74
2022/05/19 12:58:46;;;;;;;9.43;5.70;;;19.70;99.90;;;;;;5096201;28;20059;-73
2022/05/19 13:01:18;;;;;;;10.33;6.13;;;19.60;99.90;;;;;;5092980;28;20083;-77
2022/05/19 13:03:48;;;;;;;11.87;6.80;;;19.60;99.90;;;;;;5086695;28;20067;-74
2022/05/19 13:06:14;;;;;;;11.67;6.10;;;19.60;99.90;;;;;;5092225;28;20404;-74
2022/05/19 13:08:49;;;;;;;12.07;7.00;;;19.50;99.90;;;;;;5089945;28;20040;-74
2022/05/19 13:11:18;;;;;;;12.33;6.23;;;19.60;99.90;;;;;;5095106;28;20097;-74
2022/05/19 13:13:47;;;;;;;13.97;5.90;;;19.50;99.90;;;;;;5094609;28;20453;-73
2022/05/19 13:16:19;;;;;;;16.80;6.40;;;19.50;99.90;;;;;;5096062;28;20055;-73